Terminal Aerodrome Forecast
Issued by NWS Melbourne, FL

Home | Current Version | Previous Version | Text Only | Print | Product List | Glossary On
Versions: 1 2 3 4 5 6 7 8 9 10 11 12 13
694
FTUS42 KMLB 231121
TAFDAB
TAF
KDAB 231121Z 2312/2412 07007KT P6SM VCSH SCT025 SCT080 BKN200
     FM231400 06011KT P6SM VCSH SCT025 SCT150 SCT250
     FM231700 05013G20KT P6SM VCTS SCT030CB BKN050 BKN250
     FM232200 05009KT P6SM VCSH SCT030 BKN080 BKN250
     FM240600 04007KT P6SM VCSH SCT020 BKN050=

USA.gov is the U.S. government's official web portal to all federal, state and local government web resources and services.